sensor_id;sensor_type;location;lat;lon;timestamp;P1;durP1;ratioP1;P2;durP2;ratioP2
60614;SDS011;46444;45.590;5.284;2023-04-25T00:00:29;17.75;;;15.88;;
60614;SDS011;46444;45.590;5.284;2023-04-25T00:03:20;12.45;;;10.77;;
60614;SDS011;46444;45.590;5.284;2023-04-25T00:05:46;16.85;;;14.52;;
60614;SDS011;46444;45.590;5.284;2023-04-25T00:08:12;24.33;;;22.20;;
60614;SDS011;46444;45.590;5.284;2023-04-25T00:10:40;22.48;;;20.30;;
60614;SDS011;46444;45.590;5.284;2023-04-25T00:13:06;30.52;;;27.65;;
60614;SDS011;46444;45.590;5.284;2023-04-25T00:15:36;23.38;;;21.17;;
60614;SDS011;46444;45.590;5.284;2023-04-25T00:18:03;26.35;;;23.83;;
60614;SDS011;46444;45.590;5.284;2023-04-25T00:23:16;25.60;;;23.15;;
60614;SDS011;46444;45.590;5.284;2023-04-25T00:25:45;23.13;;;21.17;;
60614;SDS011;46444;45.590;5.284;2023-04-25T00:29:11;24.27;;;22.50;;
60614;SDS011;46444;45.590;5.284;2023-04-25T00:31:41;20.55;;;18.75;;
60614;SDS011;46444;45.590;5.284;2023-04-25T00:37:57;15.68;;;14.10;;
60614;SDS011;46444;45.590;5.284;2023-04-25T00:51:24;22.65;;;20.75;;
60614;SDS011;46444;45.590;5.284;2023-04-25T01:04:54;29.00;;;26.80;;
60614;SDS011;46444;45.590;5.284;2023-04-25T01:08:00;32.08;;;29.95;;
60614;SDS011;46444;45.590;5.284;2023-04-25T01:20:42;26.33;;;24.33;;
60614;SDS011;46444;45.590;5.284;2023-04-25T01:23:21;30.33;;;27.92;;
60614;SDS011;46444;45.590;5.284;2023-04-25T01:25:48;23.23;;;21.60;;
60614;SDS011;46444;45.590;5.284;2023-04-25T01:28:18;22.33;;;20.40;;
60614;SDS011;46444;45.590;5.284;2023-04-25T01:34:39;22.33;;;20.73;;
60614;SDS011;46444;45.590;5.284;2023-04-25T01:37:55;22.38;;;20.77;;
60614;SDS011;46444;45.590;5.284;2023-04-25T01:40:53;22.08;;;20.20;;
60614;SDS011;46444;45.590;5.284;2023-04-25T01:50:18;19.35;;;17.88;;
60614;SDS011;46444;45.590;5.284;2023-04-25T01:53:21;24.17;;;22.17;;
60614;SDS011;46444;45.590;5.284;2023-04-25T01:56:07;15.65;;;14.07;;
60614;SDS011;46444;45.590;5.284;2023-04-25T01:58:39;17.52;;;15.68;;
60614;SDS011;46444;45.590;5.284;2023-04-25T02:01:11;20.00;;;18.27;;
60614;SDS011;46444;45.590;5.284;2023-04-25T02:11:09;30.60;;;28.23;;
60614;SDS011;46444;45.590;5.284;2023-04-25T02:13:50;12.50;;;9.20;;
60614;SDS011;46444;45.590;5.284;2023-04-25T02:16:22;7.38;;;6.13;;
60614;SDS011;46444;45.590;5.284;2023-04-25T02:18:55;7.88;;;5.57;;
60614;SDS011;46444;45.590;5.284;2023-04-25T02:21:21;6.80;;;5.40;;
60614;SDS011;46444;45.590;5.284;2023-04-25T02:24:23;12.07;;;10.88;;
60614;SDS011;46444;45.590;5.284;2023-04-25T02:26:49;8.02;;;7.32;;
60614;SDS011;46444;45.590;5.284;2023-04-25T02:29:17;10.13;;;9.23;;
60614;SDS011;46444;45.590;5.284;2023-04-25T02:31:43;10.45;;;9.38;;
60614;SDS011;46444;45.590;5.284;2023-04-25T02:34:08;8.00;;;6.72;;
60614;SDS011;46444;45.590;5.284;2023-04-25T02:36:34;9.05;;;7.32;;
60614;SDS011;46444;45.590;5.284;2023-04-25T02:39:00;9.38;;;6.82;;
60614;SDS011;46444;45.590;5.284;2023-04-25T02:41:36;10.20;;;7.80;;
60614;SDS011;46444;45.590;5.284;2023-04-25T02:44:02;10.75;;;9.63;;
60614;SDS011;46444;45.590;5.284;2023-04-25T02:46:28;10.85;;;9.80;;
60614;SDS011;46444;45.590;5.284;2023-04-25T02:49:02;11.57;;;10.63;;
60614;SDS011;46444;45.590;5.284;2023-04-25T02:51:30;11.70;;;10.05;;
60614;SDS011;46444;45.590;5.284;2023-04-25T02:54:15;9.10;;;8.23;;
60614;SDS011;46444;45.590;5.284;2023-04-25T02:57:13;10.18;;;8.55;;
60614;SDS011;46444;45.590;5.284;2023-04-25T02:59:39;10.82;;;9.82;;
60614;SDS011;46444;45.590;5.284;2023-04-25T03:02:43;12.73;;;10.30;;
60614;SDS011;46444;45.590;5.284;2023-04-25T03:05:17;10.13;;;7.93;;
60614;SDS011;46444;45.590;5.284;2023-04-25T03:07:55;11.10;;;8.95;;
60614;SDS011;46444;45.590;5.284;2023-04-25T03:10:50;10.27;;;9.38;;
60614;SDS011;46444;45.590;5.284;2023-04-25T03:13:20;11.65;;;10.48;;
60614;SDS011;46444;45.590;5.284;2023-04-25T03:15:45;9.50;;;8.27;;
60614;SDS011;46444;45.590;5.284;2023-04-25T03:18:13;9.82;;;8.93;;
60614;SDS011;46444;45.590;5.284;2023-04-25T03:23:33;7.55;;;6.78;;
60614;SDS011;46444;45.590;5.284;2023-04-25T03:25:58;17.40;;;16.02;;
60614;SDS011;46444;45.590;5.284;2023-04-25T03:28:27;24.08;;;22.55;;
60614;SDS011;46444;45.590;5.284;2023-04-25T03:30:53;8.88;;;6.50;;
60614;SDS011;46444;45.590;5.284;2023-04-25T03:33:21;8.57;;;6.63;;
60614;SDS011;46444;45.590;5.284;2023-04-25T03:35:53;8.65;;;7.85;;
60614;SDS011;46444;45.590;5.284;2023-04-25T03:38:24;17.23;;;15.63;;
60614;SDS011;46444;45.590;5.284;2023-04-25T03:41:11;8.27;;;7.57;;
60614;SDS011;46444;45.590;5.284;2023-04-25T03:43:38;19.95;;;18.60;;
60614;SDS011;46444;45.590;5.284;2023-04-25T03:46:16;20.60;;;19.27;;
60614;SDS011;46444;45.590;5.284;2023-04-25T03:51:44;15.43;;;14.30;;
60614;SDS011;46444;45.590;5.284;2023-04-25T03:54:36;26.52;;;24.77;;
60614;SDS011;46444;45.590;5.284;2023-04-25T04:04:17;38.78;;;36.20;;
60614;SDS011;46444;45.590;5.284;2023-04-25T04:06:51;34.88;;;32.88;;
60614;SDS011;46444;45.590;5.284;2023-04-25T04:09:20;37.28;;;35.00;;
60614;SDS011;46444;45.590;5.284;2023-04-25T04:11:46;42.67;;;40.15;;
60614;SDS011;46444;45.590;5.284;2023-04-25T04:14:11;40.42;;;38.13;;
60614;SDS011;46444;45.590;5.284;2023-04-25T04:16:37;33.58;;;31.35;;
60614;SDS011;46444;45.590;5.284;2023-04-25T04:19:21;37.38;;;34.80;;
60614;SDS011;46444;45.590;5.284;2023-04-25T04:21:47;40.58;;;37.85;;
60614;SDS011;46444;45.590;5.284;2023-04-25T04:24:13;30.02;;;28.08;;
60614;SDS011;46444;45.590;5.284;2023-04-25T04:29:25;40.83;;;38.33;;
60614;SDS011;46444;45.590;5.284;2023-04-25T04:31:54;34.05;;;32.03;;
60614;SDS011;46444;45.590;5.284;2023-04-25T04:37:36;37.67;;;35.25;;
60614;SDS011;46444;45.590;5.284;2023-04-25T04:40:05;27.42;;;25.52;;
60614;SDS011;46444;45.590;5.284;2023-04-25T04:42:32;41.35;;;38.85;;
60614;SDS011;46444;45.590;5.284;2023-04-25T04:44:57;40.25;;;37.97;;
60614;SDS011;46444;45.590;5.284;2023-04-25T04:47:26;38.72;;;36.30;;
60614;SDS011;46444;45.590;5.284;2023-04-25T05:06:13;34.35;;;32.00;;
60614;SDS011;46444;45.590;5.284;2023-04-25T05:08:38;39.15;;;36.75;;
60614;SDS011;46444;45.590;5.284;2023-04-25T05:11:04;42.05;;;39.53;;
60614;SDS011;46444;45.590;5.284;2023-04-25T05:47:59;34.58;;;32.22;;
60614;SDS011;46444;45.590;5.284;2023-04-25T07:37:30;12.45;;;9.23;;
60614;SDS011;46444;45.590;5.284;2023-04-25T07:39:56;12.70;;;9.77;;
60614;SDS011;46444;45.590;5.284;2023-04-25T07:42:21;15.38;;;11.93;;
60614;SDS011;46444;45.590;5.284;2023-04-25T07:44:46;13.20;;;9.63;;
60614;SDS011;46444;45.590;5.284;2023-04-25T07:47:12;15.13;;;11.27;;
60614;SDS011;46444;45.590;5.284;2023-04-25T07:49:38;15.50;;;10.20;;
60614;SDS011;46444;45.590;5.284;2023-04-25T07:52:04;7.93;;;5.82;;
60614;SDS011;46444;45.590;5.284;2023-04-25T07:54:31;8.32;;;5.68;;
60614;SDS011;46444;45.590;5.284;2023-04-25T07:56:57;10.07;;;7.03;;
60614;SDS011;46444;45.590;5.284;2023-04-25T07:59:22;8.57;;;6.55;;
60614;SDS011;46444;45.590;5.284;2023-04-25T08:01:48;9.25;;;7.03;;
60614;SDS011;46444;45.590;5.284;2023-04-25T08:04:13;10.55;;;6.72;;
60614;SDS011;46444;45.590;5.284;2023-04-25T08:06:39;9.07;;;6.40;;
60614;SDS011;46444;45.590;5.284;2023-04-25T08:09:05;7.05;;;5.15;;
60614;SDS011;46444;45.590;5.284;2023-04-25T08:11:30;10.13;;;5.28;;
60614;SDS011;46444;45.590;5.284;2023-04-25T08:13:56;9.20;;;5.75;;
60614;SDS011;46444;45.590;5.284;2023-04-25T08:16:21;9.68;;;4.85;;
60614;SDS011;46444;45.590;5.284;2023-04-25T08:18:47;10.73;;;4.80;;
60614;SDS011;46444;45.590;5.284;2023-04-25T08:21:12;7.55;;;4.90;;
60614;SDS011;46444;45.590;5.284;2023-04-25T08:23:38;9.00;;;5.03;;
60614;SDS011;46444;45.590;5.284;2023-04-25T08:26:04;7.85;;;3.63;;
60614;SDS011;46444;45.590;5.284;2023-04-25T08:28:30;5.40;;;3.85;;
60614;SDS011;46444;45.590;5.284;2023-04-25T08:30:56;6.95;;;4.20;;
60614;SDS011;46444;45.590;5.284;2023-04-25T08:33:21;8.55;;;4.18;;
60614;SDS011;46444;45.590;5.284;2023-04-25T08:35:47;9.65;;;4.60;;
60614;SDS011;46444;45.590;5.284;2023-04-25T08:38:12;6.93;;;4.18;;
60614;SDS011;46444;45.590;5.284;2023-04-25T08:40:38;8.98;;;5.10;;
60614;SDS011;46444;45.590;5.284;2023-04-25T08:43:05;9.63;;;4.40;;
60614;SDS011;46444;45.590;5.284;2023-04-25T08:45:36;8.35;;;4.47;;
60614;SDS011;46444;45.590;5.284;2023-04-25T08:48:04;8.30;;;4.35;;
60614;SDS011;46444;45.590;5.284;2023-04-25T08:50:31;7.85;;;4.40;;
60614;SDS011;46444;45.590;5.284;2023-04-25T08:52:56;9.20;;;4.25;;
60614;SDS011;46444;45.590;5.284;2023-04-25T08:55:26;7.72;;;4.32;;
60614;SDS011;46444;45.590;5.284;2023-04-25T08:57:53;6.88;;;3.80;;
60614;SDS011;46444;45.590;5.284;2023-04-25T09:00:20;6.43;;;3.78;;
60614;SDS011;46444;45.590;5.284;2023-04-25T09:02:45;5.47;;;4.03;;
60614;SDS011;46444;45.590;5.284;2023-04-25T09:05:15;5.70;;;3.55;;
60614;SDS011;46444;45.590;5.284;2023-04-25T09:07:40;7.93;;;3.65;;
60614;SDS011;46444;45.590;5.284;2023-04-25T09:10:05;5.55;;;3.25;;
60614;SDS011;46444;45.590;5.284;2023-04-25T09:12:31;4.78;;;3.10;;
60614;SDS011;46444;45.590;5.284;2023-04-25T09:17:35;5.30;;;2.80;;
60614;SDS011;46444;45.590;5.284;2023-04-25T09:20:05;4.78;;;3.00;;
60614;SDS011;46444;45.590;5.284;2023-04-25T09:22:33;6.70;;;2.80;;
60614;SDS011;46444;45.590;5.284;2023-04-25T09:25:01;6.28;;;2.72;;
60614;SDS011;46444;45.590;5.284;2023-04-25T09:27:28;6.30;;;2.92;;
60614;SDS011;46444;45.590;5.284;2023-04-25T09:29:57;5.32;;;2.60;;
60614;SDS011;46444;45.590;5.284;2023-04-25T09:32:25;7.03;;;3.05;;
60614;SDS011;46444;45.590;5.284;2023-04-25T09:34:54;9.20;;;3.00;;
60614;SDS011;46444;45.590;5.284;2023-04-25T09:37:25;6.35;;;2.40;;
60614;SDS011;46444;45.590;5.284;2023-04-25T09:39:58;5.68;;;2.97;;
60614;SDS011;46444;45.590;5.284;2023-04-25T09:42:29;4.97;;;2.30;;
60614;SDS011;46444;45.590;5.284;2023-04-25T09:44:56;4.65;;;2.97;;
60614;SDS011;46444;45.590;5.284;2023-04-25T09:47:23;4.32;;;2.25;;
60614;SDS011;46444;45.590;5.284;2023-04-25T09:49:50;3.88;;;2.50;;
60614;SDS011;46444;45.590;5.284;2023-04-25T09:52:19;5.78;;;2.40;;
60614;SDS011;46444;45.590;5.284;2023-04-25T09:54:47;3.40;;;2.05;;
60614;SDS011;46444;45.590;5.284;2023-04-25T09:59:43;4.93;;;2.50;;
60614;SDS011;46444;45.590;5.284;2023-04-25T10:02:29;3.10;;;2.33;;
60614;SDS011;46444;45.590;5.284;2023-04-25T10:04:57;4.40;;;2.30;;
60614;SDS011;46444;45.590;5.284;2023-04-25T10:07:25;6.85;;;2.70;;
60614;SDS011;46444;45.590;5.284;2023-04-25T10:09:55;5.13;;;2.47;;
60614;SDS011;46444;45.590;5.284;2023-04-25T10:12:27;3.35;;;2.58;;
60614;SDS011;46444;45.590;5.284;2023-04-25T10:14:54;6.78;;;3.00;;
60614;SDS011;46444;45.590;5.284;2023-04-25T10:17:20;6.45;;;3.40;;
60614;SDS011;46444;45.590;5.284;2023-04-25T10:19:48;7.50;;;3.05;;
60614;SDS011;46444;45.590;5.284;2023-04-25T10:22:17;5.10;;;2.80;;
60614;SDS011;46444;45.590;5.284;2023-04-25T10:24:48;4.55;;;2.90;;
60614;SDS011;46444;45.590;5.284;2023-04-25T10:27:15;5.82;;;2.92;;
60614;SDS011;46444;45.590;5.284;2023-04-25T10:29:41;5.32;;;2.85;;
60614;SDS011;46444;45.590;5.284;2023-04-25T10:32:08;7.78;;;2.50;;
60614;SDS011;46444;45.590;5.284;2023-04-25T10:34:43;3.92;;;1.92;;
60614;SDS011;46444;45.590;5.284;2023-04-25T10:37:12;8.50;;;2.08;;
60614;SDS011;46444;45.590;5.284;2023-04-25T10:39:39;5.72;;;2.20;;
60614;SDS011;46444;45.590;5.284;2023-04-25T10:42:06;4.32;;;2.38;;
60614;SDS011;46444;45.590;5.284;2023-04-25T10:44:32;6.35;;;2.22;;
60614;SDS011;46444;45.590;5.284;2023-04-25T10:46:59;6.65;;;2.03;;
60614;SDS011;46444;45.590;5.284;2023-04-25T10:49:43;3.53;;;2.30;;
60614;SDS011;46444;45.590;5.284;2023-04-25T10:54:55;3.00;;;2.30;;
60614;SDS011;46444;45.590;5.284;2023-04-25T10:59:57;8.13;;;2.30;;
60614;SDS011;46444;45.590;5.284;2023-04-25T11:02:25;5.90;;;2.10;;
60614;SDS011;46444;45.590;5.284;2023-04-25T11:04:52;5.63;;;2.03;;
60614;SDS011;46444;45.590;5.284;2023-04-25T11:10:01;3.08;;;2.00;;
60614;SDS011;46444;45.590;5.284;2023-04-25T11:12:29;5.57;;;2.28;;
60614;SDS011;46444;45.590;5.284;2023-04-25T11:14:59;3.25;;;2.03;;
60614;SDS011;46444;45.590;5.284;2023-04-25T11:17:31;7.93;;;2.60;;
60614;SDS011;46444;45.590;5.284;2023-04-25T11:19:57;5.57;;;2.30;;
60614;SDS011;46444;45.590;5.284;2023-04-25T11:22:23;4.43;;;1.98;;
60614;SDS011;46444;45.590;5.284;2023-04-25T11:24:48;4.20;;;1.73;;
60614;SDS011;46444;45.590;5.284;2023-04-25T11:38:53;2.67;;;1.60;;
60614;SDS011;46444;45.590;5.284;2023-04-25T11:41:21;4.13;;;2.10;;
60614;SDS011;46444;45.590;5.284;2023-04-25T11:43:47;4.05;;;1.75;;
60614;SDS011;46444;45.590;5.284;2023-04-25T11:46:13;3.90;;;1.70;;
60614;SDS011;46444;45.590;5.284;2023-04-25T13:36:26;3.10;;;2.05;;
60614;SDS011;46444;45.590;5.284;2023-04-25T13:38:52;1.95;;;1.70;;
60614;SDS011;46444;45.590;5.284;2023-04-25T13:41:18;2.90;;;1.80;;
60614;SDS011;46444;45.590;5.284;2023-04-25T13:43:44;3.00;;;2.50;;
60614;SDS011;46444;45.590;5.284;2023-04-25T13:46:12;3.83;;;1.90;;
60614;SDS011;46444;45.590;5.284;2023-04-25T13:48:38;3.78;;;2.10;;
60614;SDS011;46444;45.590;5.284;2023-04-25T13:51:04;3.08;;;1.60;;
60614;SDS011;46444;45.590;5.284;2023-04-25T13:53:30;2.55;;;1.70;;
60614;SDS011;46444;45.590;5.284;2023-04-25T13:55:55;3.72;;;2.10;;
60614;SDS011;46444;45.590;5.284;2023-04-25T13:58:21;2.75;;;1.95;;
60614;SDS011;46444;45.590;5.284;2023-04-25T14:00:47;3.72;;;1.70;;
60614;SDS011;46444;45.590;5.284;2023-04-25T14:03:13;3.05;;;1.80;;
60614;SDS011;46444;45.590;5.284;2023-04-25T14:05:38;2.03;;;1.40;;
60614;SDS011;46444;45.590;5.284;2023-04-25T14:08:05;4.30;;;1.60;;
60614;SDS011;46444;45.590;5.284;2023-04-25T14:10:32;3.72;;;1.88;;
60614;SDS011;46444;45.590;5.284;2023-04-25T14:12:57;3.88;;;1.70;;
60614;SDS011;46444;45.590;5.284;2023-04-25T14:15:24;2.53;;;1.77;;
60614;SDS011;46444;45.590;5.284;2023-04-25T14:17:50;5.50;;;1.83;;
60614;SDS011;46444;45.590;5.284;2023-04-25T14:20:16;3.00;;;1.88;;
60614;SDS011;46444;45.590;5.284;2023-04-25T14:22:45;2.95;;;1.60;;
60614;SDS011;46444;45.590;5.284;2023-04-25T14:25:10;2.10;;;1.50;;
60614;SDS011;46444;45.590;5.284;2023-04-25T14:27:36;3.17;;;1.63;;
60614;SDS011;46444;45.590;5.284;2023-04-25T14:30:02;3.60;;;1.55;;
60614;SDS011;46444;45.590;5.284;2023-04-25T14:32:28;2.83;;;1.42;;
60614;SDS011;46444;45.590;5.284;2023-04-25T14:34:54;3.85;;;1.70;;
60614;SDS011;46444;45.590;5.284;2023-04-25T14:37:20;2.45;;;1.60;;
60614;SDS011;46444;45.590;5.284;2023-04-25T14:39:45;2.55;;;1.40;;
60614;SDS011;46444;45.590;5.284;2023-04-25T14:42:11;1.90;;;1.50;;
60614;SDS011;46444;45.590;5.284;2023-04-25T14:44:36;4.93;;;1.70;;
60614;SDS011;46444;45.590;5.284;2023-04-25T14:47:03;3.08;;;1.60;;
60614;SDS011;46444;45.590;5.284;2023-04-25T14:49:28;5.32;;;1.88;;
60614;SDS011;46444;45.590;5.284;2023-04-25T14:51:54;3.83;;;1.60;;
60614;SDS011;46444;45.590;5.284;2023-04-25T14:54:20;2.78;;;1.60;;
60614;SDS011;46444;45.590;5.284;2023-04-25T14:56:45;4.20;;;1.70;;
60614;SDS011;46444;45.590;5.284;2023-04-25T14:59:11;4.03;;;1.90;;
60614;SDS011;46444;45.590;5.284;2023-04-25T15:01:36;2.20;;;1.42;;
60614;SDS011;46444;45.590;5.284;2023-04-25T15:04:01;4.03;;;1.75;;
60614;SDS011;46444;45.590;5.284;2023-04-25T15:06:28;2.67;;;1.80;;
60614;SDS011;46444;45.590;5.284;2023-04-25T15:08:55;2.28;;;1.92;;
60614;SDS011;46444;45.590;5.284;2023-04-25T15:11:22;4.82;;;3.70;;
60614;SDS011;46444;45.590;5.284;2023-04-25T15:13:47;8.18;;;3.40;;
60614;SDS011;46444;45.590;5.284;2023-04-25T15:16:13;6.13;;;4.15;;
60614;SDS011;46444;45.590;5.284;2023-04-25T15:18:38;3.53;;;3.00;;
60614;SDS011;46444;45.590;5.284;2023-04-25T15:21:04;5.20;;;3.10;;
60614;SDS011;46444;45.590;5.284;2023-04-25T15:23:29;3.40;;;2.80;;
60614;SDS011;46444;45.590;5.284;2023-04-25T15:25:55;3.15;;;2.50;;
60614;SDS011;46444;45.590;5.284;2023-04-25T15:28:20;3.25;;;2.58;;
60614;SDS011;46444;45.590;5.284;2023-04-25T15:30:46;4.47;;;2.53;;
60614;SDS011;46444;45.590;5.284;2023-04-25T15:33:12;2.70;;;2.47;;
60614;SDS011;46444;45.590;5.284;2023-04-25T15:35:38;2.78;;;2.33;;
60614;SDS011;46444;45.590;5.284;2023-04-25T15:38:04;4.93;;;2.20;;
60614;SDS011;46444;45.590;5.284;2023-04-25T15:40:29;5.63;;;2.42;;
60614;SDS011;46444;45.590;5.284;2023-04-25T15:42:55;3.08;;;2.35;;
60614;SDS011;46444;45.590;5.284;2023-04-25T15:45:23;5.50;;;2.37;;
60614;SDS011;46444;45.590;5.284;2023-04-25T15:47:53;3.22;;;2.40;;
60614;SDS011;46444;45.590;5.284;2023-04-25T15:52:49;2.28;;;2.08;;
60614;SDS011;46444;45.590;5.284;2023-04-25T15:55:15;3.88;;;2.30;;
60614;SDS011;46444;45.590;5.284;2023-04-25T15:57:41;2.38;;;2.15;;
60614;SDS011;46444;45.590;5.284;2023-04-25T16:00:07;3.22;;;2.28;;
60614;SDS011;46444;45.590;5.284;2023-04-25T16:02:41;3.67;;;2.80;;
60614;SDS011;46444;45.590;5.284;2023-04-25T16:05:08;4.10;;;1.90;;
60614;SDS011;46444;45.590;5.284;2023-04-25T16:07:34;3.22;;;2.20;;
60614;SDS011;46444;45.590;5.284;2023-04-25T16:10:00;4.10;;;2.42;;
60614;SDS011;46444;45.590;5.284;2023-04-25T16:12:26;4.07;;;2.10;;
60614;SDS011;46444;45.590;5.284;2023-04-25T16:14:52;2.45;;;1.90;;
60614;SDS011;46444;45.590;5.284;2023-04-25T16:17:18;3.60;;;2.13;;
60614;SDS011;46444;45.590;5.284;2023-04-25T16:19:44;4.93;;;2.05;;
60614;SDS011;46444;45.590;5.284;2023-04-25T16:22:10;4.97;;;2.20;;
60614;SDS011;46444;45.590;5.284;2023-04-25T16:24:37;4.25;;;2.63;;
60614;SDS011;46444;45.590;5.284;2023-04-25T16:27:02;2.95;;;1.70;;
60614;SDS011;46444;45.590;5.284;2023-04-25T16:29:28;2.92;;;2.67;;
60614;SDS011;46444;45.590;5.284;2023-04-25T16:31:54;3.97;;;2.10;;
60614;SDS011;46444;45.590;5.284;2023-04-25T16:34:20;2.60;;;2.30;;
60614;SDS011;46444;45.590;5.284;2023-04-25T16:36:47;2.80;;;1.60;;
60614;SDS011;46444;45.590;5.284;2023-04-25T16:39:12;1.67;;;1.27;;
60614;SDS011;46444;45.590;5.284;2023-04-25T16:41:38;3.20;;;2.75;;
60614;SDS011;46444;45.590;5.284;2023-04-25T16:44:03;2.95;;;2.40;;
60614;SDS011;46444;45.590;5.284;2023-04-25T16:46:30;2.97;;;2.35;;
60614;SDS011;46444;45.590;5.284;2023-04-25T16:48:56;5.63;;;2.50;;
60614;SDS011;46444;45.590;5.284;2023-04-25T16:51:21;2.87;;;2.53;;
60614;SDS011;46444;45.590;5.284;2023-04-25T16:53:46;5.13;;;2.60;;
60614;SDS011;46444;45.590;5.284;2023-04-25T16:56:12;2.65;;;2.38;;
60614;SDS011;46444;45.590;5.284;2023-04-25T16:58:37;3.58;;;2.40;;
60614;SDS011;46444;45.590;5.284;2023-04-25T17:01:03;6.32;;;5.93;;
60614;SDS011;46444;45.590;5.284;2023-04-25T17:03:29;1.95;;;1.33;;
60614;SDS011;46444;45.590;5.284;2023-04-25T17:05:55;3.47;;;2.50;;
60614;SDS011;46444;45.590;5.284;2023-04-25T17:08:22;2.53;;;0.88;;
60614;SDS011;46444;45.590;5.284;2023-04-25T17:10:48;2.95;;;2.08;;
60614;SDS011;46444;45.590;5.284;2023-04-25T17:13:14;1.98;;;1.88;;
60614;SDS011;46444;45.590;5.284;2023-04-25T17:15:40;3.08;;;1.10;;
60614;SDS011;46444;45.590;5.284;2023-04-25T17:18:05;3.13;;;1.42;;
60614;SDS011;46444;45.590;5.284;2023-04-25T17:20:31;6.85;;;1.80;;
60614;SDS011;46444;45.590;5.284;2023-04-25T17:22:56;1.85;;;0.93;;
60614;SDS011;46444;45.590;5.284;2023-04-25T17:25:22;3.38;;;1.02;;
60614;SDS011;46444;45.590;5.284;2023-04-25T17:27:47;2.22;;;1.27;;
60614;SDS011;46444;45.590;5.284;2023-04-25T17:30:13;2.78;;;1.25;;
60614;SDS011;46444;45.590;5.284;2023-04-25T17:32:38;3.90;;;1.30;;
60614;SDS011;46444;45.590;5.284;2023-04-25T17:40:14;4.43;;;1.23;;
60614;SDS011;46444;45.590;5.284;2023-04-25T17:42:40;2.97;;;1.00;;
60614;SDS011;46444;45.590;5.284;2023-04-25T17:45:06;1.17;;;0.98;;
60614;SDS011;46444;45.590;5.284;2023-04-25T17:47:32;3.13;;;1.13;;
60614;SDS011;46444;45.590;5.284;2023-04-25T17:49:58;2.08;;;1.02;;
60614;SDS011;46444;45.590;5.284;2023-04-25T17:52:24;2.28;;;1.25;;
60614;SDS011;46444;45.590;5.284;2023-04-25T17:54:52;2.08;;;1.13;;
60614;SDS011;46444;45.590;5.284;2023-04-25T17:57:18;4.40;;;1.10;;
60614;SDS011;46444;45.590;5.284;2023-04-25T17:59:46;4.07;;;1.20;;
60614;SDS011;46444;45.590;5.284;2023-04-25T18:02:15;2.33;;;1.13;;
60614;SDS011;46444;45.590;5.284;2023-04-25T18:04:41;1.83;;;1.10;;
60614;SDS011;46444;45.590;5.284;2023-04-25T18:07:06;4.07;;;1.20;;
60614;SDS011;46444;45.590;5.284;2023-04-25T18:09:32;3.50;;;1.30;;
60614;SDS011;46444;45.590;5.284;2023-04-25T18:11:58;5.55;;;1.70;;
60614;SDS011;46444;45.590;5.284;2023-04-25T18:14:25;2.65;;;1.10;;
60614;SDS011;46444;45.590;5.284;2023-04-25T18:16:52;1.92;;;1.05;;
60614;SDS011;46444;45.590;5.284;2023-04-25T18:19:18;3.13;;;1.17;;
60614;SDS011;46444;45.590;5.284;2023-04-25T18:21:47;3.30;;;1.52;;
60614;SDS011;46444;45.590;5.284;2023-04-25T18:24:22;2.85;;;1.63;;
60614;SDS011;46444;45.590;5.284;2023-04-25T18:26:51;1.55;;;1.10;;
60614;SDS011;46444;45.590;5.284;2023-04-25T18:31:53;3.95;;;1.15;;
60614;SDS011;46444;45.590;5.284;2023-04-25T18:34:19;1.65;;;1.33;;
60614;SDS011;46444;45.590;5.284;2023-04-25T18:36:46;2.78;;;1.20;;
60614;SDS011;46444;45.590;5.284;2023-04-25T18:39:11;1.70;;;1.30;;
60614;SDS011;46444;45.590;5.284;2023-04-25T18:49:22;4.25;;;1.75;;
60614;SDS011;46444;45.590;5.284;2023-04-25T18:51:47;3.28;;;1.88;;
